Time;durP1;ratioP1;P1;durP2;ratioP2;P2;SDS_P1;SDS_P2;PMS_P1;PMS_P2;Temp;Humidity;BMP_temperature;BMP_pressure;BME280_temperature;BME280_humidity;BME280_pressure;Samples;Min_cycle;Max_cycle;Signal;HPM_P1;HPM_P2
2022/02/07 00:00:46;;;;;;;18.92;2.50;;;;;;;3.02;91.04;100426.06;5037235;28;20071;-69
2022/02/07 00:05:39;;;;;;;16.20;2.13;;;;;;;3.00;90.28;100445.06;5037571;28;20041;-67
2022/02/07 00:08:07;;;;;;;17.60;2.00;;;;;;;2.95;89.66;100453.06;5037119;28;20029;-68
2022/02/07 00:10:36;;;;;;;15.25;2.40;;;;;;;2.99;89.93;100479.28;5021232;28;20033;-67
2022/02/07 00:13:01;;;;;;;18.83;2.00;;;;;;;2.91;90.38;100513.16;5038013;28;20452;-68
2022/02/07 00:15:27;;;;;;;15.15;2.03;;;;;;;2.88;90.37;100524.44;5020061;28;20033;-68
2022/02/07 00:17:52;;;;;;;14.63;1.58;;;;;;;2.79;90.86;100534.53;5017771;28;20458;-68
2022/02/07 00:20:20;;;;;;;11.60;1.83;;;;;;;2.83;90.91;100520.59;5002029;28;20041;-69
2022/02/07 00:22:47;;;;;;;11.60;1.38;;;;;;;2.84;90.66;100525.56;5014383;28;20245;-68
2022/02/07 00:25:14;;;;;;;14.55;2.50;;;;;;;2.89;90.69;100545.75;5020792;28;20028;-68
2022/02/07 00:27:39;;;;;;;19.08;2.47;;;;;;;2.77;90.87;100547.47;5032911;28;20048;-68
2022/02/07 00:30:08;;;;;;;12.43;1.80;;;;;;;2.86;90.01;100540.84;5018570;28;20037;-67
2022/02/07 00:32:33;;;;;;;13.63;1.95;;;;;;;2.88;89.00;100546.66;5018384;28;20297;-67
2022/02/07 00:34:59;;;;;;;13.43;1.60;;;;;;;2.79;89.04;100555.84;5020063;28;20509;-67
2022/02/07 00:37:27;;;;;;;12.48;1.48;;;;;;;2.86;88.56;100566.44;5021411;28;20041;-68
2022/02/07 00:40:02;;;;;;;15.93;1.30;;;;;;;2.83;88.43;100570.06;5042321;28;20474;-67
2022/02/07 00:42:35;;;;;;;14.07;1.60;;;;;;;2.87;88.47;100574.03;5019262;28;20517;-69
2022/02/07 00:45:02;;;;;;;15.57;2.15;;;;;;;2.80;88.47;100585.63;5002186;28;20037;-67
2022/02/07 00:47:27;;;;;;;10.50;1.27;;;;;;;2.73;87.70;100589.56;5020972;28;20131;-68
2022/02/07 00:49:54;;;;;;;19.45;1.50;;;;;;;2.72;87.60;100593.88;5022687;28;20529;-67
2022/02/07 00:52:23;;;;;;;10.77;1.50;;;;;;;2.70;87.80;100600.84;5008384;28;20514;-68
2022/02/07 00:54:51;;;;;;;14.40;1.60;;;;;;;2.69;87.41;100613.75;5019601;28;20124;-68
2022/02/07 00:57:17;;;;;;;14.05;1.75;;;;;;;2.67;87.36;100623.31;5026892;28;20037;-68
2022/02/07 00:59:43;;;;;;;13.38;2.17;;;;;;;2.59;87.90;100628.97;5026642;28;20033;-68
2022/02/07 01:02:09;;;;;;;11.93;1.48;;;;;;;2.62;88.16;100630.47;5043391;28;20052;-69
2022/02/07 01:04:34;;;;;;;16.25;2.15;;;;;;;2.70;88.20;100643.56;5018667;28;20515;-67
2022/02/07 01:07:08;;;;;;;14.25;1.77;;;;;;;2.66;88.34;100648.09;5023179;28;21035;-67
2022/02/07 01:09:49;;;;;;;12.32;1.92;;;;;;;2.62;88.55;100650.97;5013044;28;20038;-68
2022/02/07 01:15:34;;;;;;;20.00;2.60;;;;;;;2.46;89.74;100667.41;5041885;28;20049;-67
2022/02/07 01:56:02;;;;;;;13.73;1.80;;;;;;;2.77;90.67;100824.06;5026841;28;20029;-68
2022/02/07 01:58:29;;;;;;;17.23;1.90;;;;;;;2.85;90.11;100846.56;5020500;28;20029;-67
2022/02/07 02:00:54;;;;;;;21.63;1.77;;;;;;;2.89;89.53;100860.81;5024472;28;20040;-68
2022/02/07 02:03:20;;;;;;;25.17;1.85;;;;;;;2.89;89.84;100863.38;5011696;28;20029;-69
2022/02/07 02:05:52;;;;;;;17.77;1.77;;;;;;;2.68;90.40;100902.31;5024257;28;20463;-68
2022/02/07 02:08:23;;;;;;;16.05;2.03;;;;;;;2.61;91.70;100923.31;5010374;28;20037;-70
2022/02/07 02:10:55;;;;;;;8.90;1.17;;;;;;;2.28;92.73;100904.94;5009797;28;20044;-70
2022/02/07 02:13:39;;;;;;;7.70;1.35;;;;;;;2.19;92.73;100905.53;5011131;28;20036;-68
2022/02/07 02:16:15;;;;;;;10.68;1.10;;;;;;;2.11;92.97;100930.75;5005375;28;20488;-68
2022/02/07 02:32:53;;;;;;;11.52;1.45;;;;;;;1.88;93.86;100970.59;5038920;28;20083;-69
2022/02/07 02:35:40;;;;;;;13.25;1.70;;;;;;;1.83;93.83;100976.00;5024385;28;20491;-68
2022/02/07 02:38:11;;;;;;;11.98;1.38;;;;;;;1.85;93.84;100994.63;5027111;28;20057;-68
2022/02/07 02:46:07;;;;;;;8.68;2.08;;;;;;;1.89;94.17;101031.88;5025100;28;20032;-68
2022/02/07 02:48:35;;;;;;;8.98;1.48;;;;;;;1.92;93.98;101039.38;5013917;28;20497;-69
2022/02/07 02:51:07;;;;;;;7.45;1.30;;;;;;;1.75;94.05;101040.41;5025991;28;20478;-67
2022/02/07 02:53:34;;;;;;;7.82;1.05;;;;;;;1.73;94.65;101047.34;5039450;28;20394;-68
2022/02/07 02:55:59;;;;;;;19.70;1.55;;;;;;;1.77;93.63;101060.75;5026679;28;20044;-68
2022/02/07 02:58:43;;;;;;;12.50;1.75;;;;;;;1.90;93.54;101058.28;5038792;28;20048;-68
2022/02/07 03:01:09;;;;;;;10.35;1.05;;;;;;;1.82;93.61;101080.94;5025008;28;20033;-68
2022/02/07 03:03:57;;;;;;;8.35;0.90;;;;;;;1.77;93.14;101090.63;5039640;28;20519;-68
2022/02/07 03:06:23;;;;;;;13.15;1.55;;;;;;;1.73;93.72;101092.53;5027660;28;20059;-68
2022/02/07 03:08:49;;;;;;;11.88;1.05;;;;;;;1.78;93.37;101095.66;5007492;28;20037;-70
2022/02/07 03:11:19;;;;;;;13.00;1.45;;;;;;;1.75;93.03;101104.34;5021630;28;20435;-68
2022/02/07 03:19:00;;;;;;;12.13;2.22;;;;;;;1.79;91.65;101120.31;5042346;28;20082;-69
2022/02/07 03:21:26;;;;;;;7.68;0.93;;;;;;;1.78;91.78;101133.19;5040108;28;20025;-67
2022/02/07 03:23:52;;;;;;;8.77;1.00;;;;;;;1.85;91.48;101130.19;5022837;28;20628;-69
2022/02/07 03:26:19;;;;;;;15.80;1.13;;;;;;;1.92;91.46;101139.13;5026676;28;20491;-68
2022/02/07 03:28:51;;;;;;;14.10;1.92;;;;;;;1.87;91.04;101143.69;5014420;28;20033;-68
2022/02/07 03:31:19;;;;;;;11.65;1.58;;;;;;;1.83;91.02;101142.22;5024932;28;20442;-68
2022/02/07 03:33:45;;;;;;;14.70;1.05;;;;;;;1.83;91.45;101154.19;5026225;28;20455;-67
2022/02/07 03:36:12;;;;;;;19.90;1.90;;;;;;;1.87;91.35;101165.91;5024918;28;20032;-68
2022/02/07 03:38:39;;;;;;;16.20;1.92;;;;;;;1.87;90.87;101174.38;5028901;28;20833;-68
2022/02/07 03:41:06;;;;;;;14.40;1.80;;;;;;;1.85;91.03;101177.94;5025339;28;20747;-68
2022/02/07 03:43:32;;;;;;;15.32;1.60;;;;;;;1.83;91.02;101175.47;5024768;28;20059;-69
2022/02/07 03:46:01;;;;;;;17.45;1.92;;;;;;;1.77;90.60;101177.56;5024867;28;20037;-68
2022/02/07 03:48:27;;;;;;;17.45;2.03;;;;;;;1.80;91.12;101185.88;5005943;28;20029;-68
2022/02/07 03:50:53;;;;;;;13.02;2.05;;;;;;;1.76;91.18;101194.66;5042360;28;20659;-67
2022/02/07 03:53:20;;;;;;;21.02;4.20;;;;;;;1.74;91.32;101196.47;5007679;28;20180;-69
2022/02/07 03:56:03;;;;;;;13.25;1.38;;;;;;;1.72;91.29;101205.97;5026045;28;20131;-67
2022/02/07 03:58:32;;;;;;;20.30;2.15;;;;;;;1.71;91.15;101223.06;5004468;28;20387;-68
2022/02/07 04:00:58;;;;;;;13.07;1.48;;;;;;;1.73;91.32;101220.38;5022565;28;20024;-68
2022/02/07 04:03:34;;;;;;;17.48;1.98;;;;;;;1.74;91.34;101227.16;5037343;28;20039;-67
2022/02/07 04:06:03;;;;;;;18.17;2.72;;;;;;;1.78;90.69;101238.84;5027861;28;20036;-68
2022/02/07 04:08:39;;;;;;;13.45;1.65;;;;;;;1.90;90.36;101242.44;5020160;28;20029;-67
2022/02/07 04:13:41;;;;;;;14.45;1.88;;;;;;;1.82;91.02;101254.84;5021910;28;20021;-69
2022/02/07 04:16:09;;;;;;;27.73;2.53;;;;;;;1.83;90.69;101265.00;5028201;28;20090;-67
2022/02/07 04:18:51;;;;;;;9.85;1.55;;;;;;;1.79;90.96;101266.09;5023684;28;20185;-67
2022/02/07 04:21:18;;;;;;;14.85;2.30;;;;;;;1.82;91.10;101280.41;5013029;28;20534;-68
2022/02/07 04:23:44;;;;;;;15.60;1.70;;;;;;;1.86;90.83;101282.69;5023606;28;20554;-67
2022/02/07 04:26:20;;;;;;;24.35;2.40;;;;;;;1.78;90.86;101294.28;5004373;28;20037;-67
2022/02/07 04:28:46;;;;;;;24.80;2.38;;;;;;;1.88;90.74;101291.09;5023577;28;20549;-67
2022/02/07 04:31:12;;;;;;;20.27;3.03;;;;;;;1.89;90.75;101310.66;5022999;28;20033;-67
2022/02/07 04:33:41;;;;;;;24.70;3.55;;;;;;;1.88;90.84;101309.00;5023545;28;20562;-68
2022/02/07 04:36:07;;;;;;;17.38;1.85;;;;;;;1.90;90.38;101325.13;5029386;28;20041;-67
2022/02/07 04:38:33;;;;;;;22.25;1.80;;;;;;;1.92;90.71;101325.00;5025932;28;20056;-67
2022/02/07 04:41:00;;;;;;;29.35;2.80;;;;;;;1.85;90.67;101324.53;5026300;28;20033;-67
2022/02/07 04:43:26;;;;;;;24.15;1.88;;;;;;;1.85;91.16;101337.34;5041091;28;20025;-68
2022/02/07 04:48:41;;;;;;;16.02;2.47;;;;;;;1.91;90.88;101364.31;5023707;28;20044;-68
2022/02/07 04:51:39;;;;;;;20.75;2.03;;;;;;;1.95;91.18;101360.66;5034833;28;20658;-68
2022/02/07 04:57:13;;;;;;;16.67;2.13;;;;;;;1.91;91.20;101380.47;5006341;28;20672;-69
2022/02/07 05:04:44;;;;;;;23.00;2.55;;;;;;;2.09;91.30;101396.53;5014089;28;20041;-68
2022/02/07 05:15:24;;;;;;;20.55;3.28;;;;;;;2.13;91.35;101412.53;5028878;28;20527;-67
2022/02/07 05:17:51;;;;;;;26.10;3.17;;;;;;;2.16;91.61;101414.91;5027040;28;20082;-68
2022/02/07 05:20:35;;;;;;;19.90;2.55;;;;;;;2.31;91.42;101429.38;5038343;28;20052;-68
2022/02/07 05:23:27;;;;;;;22.27;3.15;;;;;;;2.34;90.99;101436.09;5047592;28;20072;-67
2022/02/07 05:25:58;;;;;;;19.13;2.70;;;;;;;2.36;90.77;101439.38;5048023;28;20052;-68
2022/02/07 05:29:02;;;;;;;34.53;2.60;;;;;;;2.45;90.90;101451.66;5001960;28;20117;-67
2022/02/07 05:31:50;;;;;;;22.20;2.08;;;;;;;2.40;90.86;101476.69;4990999;28;20040;-68
2022/02/07 05:34:36;;;;;;;23.55;2.47;;;;;;;2.42;90.40;101479.16;5011668;28;20071;-68
2022/02/07 05:37:21;;;;;;;39.35;3.85;;;;;;;2.44;90.72;101487.59;5045067;28;20183;-68
2022/02/07 05:40:11;;;;;;;17.13;2.22;;;;;;;2.48;90.12;101478.81;5042463;28;20405;-67
2022/02/07 05:42:49;;;;;;;16.73;2.45;;;;;;;2.48;90.67;101479.63;5027673;28;20487;-68
2022/02/07 05:45:43;;;;;;;22.40;3.30;;;;;;;2.47;90.87;101488.25;5022340;28;20076;-68
2022/02/07 05:48:28;;;;;;;19.73;2.50;;;;;;;2.55;90.37;101503.16;5025764;28;20036;-70
2022/02/07 05:51:06;;;;;;;20.15;2.58;;;;;;;2.59;90.01;101506.38;5021395;28;20728;-69
2022/02/07 05:53:44;;;;;;;22.42;2.40;;;;;;;2.71;89.14;101505.66;5041503;28;20080;-68
2022/02/07 05:56:34;;;;;;;30.75;2.83;;;;;;;2.64;89.12;101515.44;5028696;28;20063;-68
2022/02/07 05:59:08;;;;;;;26.80;3.28;;;;;;;2.69;89.28;101518.59;5028545;28;20070;-68
2022/02/07 06:02:00;;;;;;;32.28;2.88;;;;;;;2.64;89.16;101541.06;5037892;28;20140;-69
2022/02/07 06:04:27;;;;;;;13.07;2.50;;;;;;;2.69;88.83;101545.91;5008698;28;20040;-69
2022/02/07 06:06:53;;;;;;;24.77;4.45;;;;;;;2.62;89.31;101549.72;5029519;28;20041;-68
2022/02/07 06:09:19;;;;;;;20.95;2.10;;;;;;;2.66;89.31;101557.16;5025617;28;20067;-68
2022/02/07 06:11:49;;;;;;;20.25;3.60;;;;;;;2.64;89.21;101565.84;5004797;28;20033;-68
2022/02/07 06:14:18;;;;;;;18.85;2.00;;;;;;;2.67;88.95;101575.91;5040690;28;20064;-69
2022/02/07 06:16:44;;;;;;;23.02;3.30;;;;;;;2.59;89.28;101576.34;5028094;28;20044;-69
2022/02/07 06:19:10;;;;;;;25.23;2.97;;;;;;;2.68;89.03;101573.25;5023686;28;20028;-69
2022/02/07 06:21:41;;;;;;;22.83;2.33;;;;;;;2.64;89.55;101576.09;5005560;28;20042;-69
2022/02/07 06:24:06;;;;;;;20.55;2.47;;;;;;;2.67;89.40;101588.72;5009722;28;20036;-69
2022/02/07 06:26:33;;;;;;;32.65;3.13;;;;;;;2.69;89.49;101594.56;5017752;28;20029;-69
2022/02/07 06:29:01;;;;;;;35.13;4.38;;;;;;;2.69;89.62;101595.41;5026274;28;20486;-68
2022/02/07 06:31:28;;;;;;;17.50;3.55;;;;;;;2.64;89.19;101607.66;5011506;28;20387;-68
2022/02/07 06:33:56;;;;;;;23.48;3.60;;;;;;;2.60;89.53;101601.06;5009489;28;20116;-68
2022/02/07 06:36:22;;;;;;;14.85;2.92;;;;;;;2.59;89.92;101606.25;5024067;28;20042;-68
2022/02/07 06:38:49;;;;;;;18.75;2.90;;;;;;;2.58;89.92;101612.28;5011219;28;20561;-68
2022/02/07 06:41:15;;;;;;;25.85;2.63;;;;;;;2.70;89.47;101616.72;5010550;28;20033;-69
2022/02/07 06:43:41;;;;;;;22.35;2.50;;;;;;;2.70;89.62;101624.41;5007773;28;20372;-68
2022/02/07 06:46:10;;;;;;;30.92;2.35;;;;;;;2.61;90.09;101628.28;5024707;28;20060;-68
2022/02/07 06:48:36;;;;;;;29.60;2.67;;;;;;;2.64;90.07;101642.69;5021784;28;20087;-68
2022/02/07 06:51:06;;;;;;;23.75;3.80;;;;;;;2.55;90.01;101653.44;5023971;28;20082;-66
2022/02/07 06:53:32;;;;;;;22.30;2.72;;;;;;;2.56;90.27;101663.56;5043076;28;20106;-65
2022/02/07 06:55:58;;;;;;;24.55;2.33;;;;;;;2.51;90.47;101675.81;5008563;28;20128;-65
2022/02/07 06:58:24;;;;;;;19.20;2.50;;;;;;;2.58;90.96;101673.72;5022402;28;20029;-66
2022/02/07 07:00:51;;;;;;;24.05;2.45;;;;;;;2.43;90.70;101676.22;5022980;28;20119;-66
2022/02/07 07:03:19;;;;;;;22.90;2.08;;;;;;;2.47;91.17;101682.00;5041315;28;20029;-66
2022/02/07 07:05:48;;;;;;;17.08;2.28;;;;;;;2.40;90.94;101696.84;5023741;28;20029;-66
2022/02/07 07:08:14;;;;;;;21.23;2.35;;;;;;;2.41;91.26;101702.78;5024229;28;20039;-65
2022/02/07 07:10:40;;;;;;;24.23;2.40;;;;;;;2.53;91.29;101702.16;5023801;28;20060;-65
2022/02/07 07:13:13;;;;;;;27.83;2.80;;;;;;;2.46;91.46;101711.06;5012943;28;20037;-66
2022/02/07 07:15:49;;;;;;;24.08;3.25;;;;;;;2.37;91.78;101714.91;5011112;28;20064;-66
2022/02/07 07:18:17;;;;;;;29.33;2.20;;;;;;;2.42;91.41;101720.63;5025777;28;20642;-66
2022/02/07 07:20:46;;;;;;;17.88;2.75;;;;;;;2.48;92.08;101729.72;5011372;28;20067;-66
2022/02/07 07:23:12;;;;;;;19.15;2.00;;;;;;;2.55;91.31;101725.94;5022172;28;20428;-65
2022/02/07 07:25:42;;;;;;;29.13;3.30;;;;;;;2.52;91.53;101729.50;5006464;28;20037;-66
2022/02/07 07:28:11;;;;;;;23.45;3.10;;;;;;;2.51;91.45;101727.00;5019993;28;20680;-66
2022/02/07 07:30:49;;;;;;;31.03;3.73;;;;;;;2.51;91.29;101732.94;5023784;28;20124;-66
2022/02/07 07:33:19;;;;;;;28.02;3.03;;;;;;;2.62;90.75;101734.09;5023719;28;20033;-66
2022/02/07 07:35:46;;;;;;;35.97;3.17;;;;;;;2.55;90.75;101743.88;5017929;28;20116;-65
2022/02/07 07:38:12;;;;;;;22.73;2.88;;;;;;;2.58;91.06;101745.44;5021823;28;20419;-66
2022/02/07 07:40:39;;;;;;;15.80;1.83;;;;;;;2.44;91.13;101766.63;5020159;28;20037;-64
2022/02/07 07:43:07;;;;;;;17.75;2.25;;;;;;;2.50;91.33;101774.00;5033008;28;20044;-66
2022/02/07 07:46:06;;;;;;;22.67;4.22;;;;;;;2.51;91.20;101768.81;5021673;28;20060;-66
2022/02/07 07:49:01;;;;;;;29.23;3.90;;;;;;;2.50;91.33;101785.06;5001417;28;20037;-65
2022/02/07 07:51:45;;;;;;;30.27;3.00;;;;;;;2.65;90.79;101813.34;5008716;28;20442;-65
2022/02/07 07:54:47;;;;;;;34.90;4.70;;;;;;;2.71;90.53;101811.31;5019445;28;20401;-66
2022/02/07 08:02:59;;;;;;;21.35;3.30;;;;;;;2.55;91.09;101823.25;5040091;28;20036;-65
2022/02/07 08:05:43;;;;;;;15.32;2.47;;;;;;;2.64;91.33;101820.22;5020044;28;20083;-65
2022/02/07 08:08:27;;;;;;;27.30;4.22;;;;;;;2.69;91.21;101830.22;5005974;28;20040;-66
2022/02/07 08:13:28;;;;;;;21.53;3.27;;;;;;;2.90;90.44;101847.03;5018808;28;20037;-65
2022/02/07 08:15:56;;;;;;;22.70;2.38;;;;;;;3.04;90.67;101863.41;5017564;28;20421;-66
2022/02/07 08:18:21;;;;;;;27.33;4.38;;;;;;;2.92;90.66;101872.59;5036501;28;20090;-65
2022/02/07 08:20:47;;;;;;;29.48;3.45;;;;;;;3.03;90.59;101889.94;5023948;28;20037;-65
2022/02/07 08:23:13;;;;;;;19.70;2.60;;;;;;;2.88;90.15;101899.25;5025547;28;20033;-65
2022/02/07 08:25:39;;;;;;;21.98;2.72;;;;;;;2.97;90.25;101905.66;4998795;28;20036;-65
2022/02/07 08:28:06;;;;;;;33.25;2.60;;;;;;;2.99;90.50;101916.63;5027471;28;20048;-65
2022/02/07 08:30:32;;;;;;;28.50;4.47;;;;;;;3.05;89.71;101922.28;5036396;28;20052;-65
2022/02/07 08:32:58;;;;;;;37.83;3.70;;;;;;;3.18;89.58;101930.16;5015876;28;20036;-66
2022/02/07 08:35:24;;;;;;;23.90;3.42;;;;;;;3.37;89.04;101929.19;5038107;28;20037;-66
2022/02/07 08:37:50;;;;;;;16.80;2.67;;;;;;;3.58;88.48;101938.31;5020164;28;20037;-66
2022/02/07 08:40:16;;;;;;;20.17;2.60;;;;;;;3.66;87.74;101940.47;5037576;28;20036;-65
2022/02/07 08:42:42;;;;;;;30.27;2.88;;;;;;;3.48;87.91;101937.13;5040260;28;20032;-66
2022/02/07 08:45:08;;;;;;;25.88;3.20;;;;;;;3.40;88.45;101944.41;5011053;28;20048;-66
2022/02/07 08:47:33;;;;;;;24.02;2.75;;;;;;;3.60;88.53;101951.03;5019946;28;20061;-65
2022/02/07 08:49:59;;;;;;;24.40;2.78;;;;;;;3.73;87.96;101946.91;5041152;28;20040;-66
2022/02/07 08:52:25;;;;;;;29.48;3.20;;;;;;;3.89;87.39;101952.03;5040237;28;20029;-65
2022/02/07 08:54:52;;;;;;;23.85;3.55;;;;;;;3.87;87.19;101958.97;5038988;28;20055;-65
2022/02/07 08:57:30;;;;;;;25.58;3.42;;;;;;;3.93;87.66;101952.69;5041338;28;20036;-66
2022/02/07 09:05:11;;;;;;;19.23;3.08;;;;;;;4.41;86.01;101973.97;5022537;28;20086;-65
2022/02/07 09:07:45;;;;;;;22.45;2.55;;;;;;;4.26;86.31;101976.47;5037208;28;20041;-66
2022/02/07 09:10:11;;;;;;;29.02;2.63;;;;;;;4.18;86.23;101972.69;5020638;28;21374;-66
2022/02/07 09:12:40;;;;;;;33.13;5.20;;;;;;;4.20;86.53;101979.41;5047520;28;20509;-65
2022/02/07 09:15:27;;;;;;;26.27;2.88;;;;;;;4.22;86.85;101985.28;5039262;28;20172;-66
2022/02/07 09:17:51;;;;;;;23.98;2.97;;;;;;;4.15;86.45;101986.53;5021101;28;20043;-65
2022/02/07 09:20:16;;;;;;;22.85;2.97;;;;;;;4.16;86.55;101984.78;5042251;28;20410;-65
2022/02/07 09:22:42;;;;;;;20.63;3.10;;;;;;;4.32;86.21;101992.47;5023108;28;20037;-66
2022/02/07 09:25:07;;;;;;;19.73;3.13;;;;;;;4.57;86.04;102007.31;5039663;28;20047;-66
2022/02/07 09:27:36;;;;;;;18.80;2.85;;;;;;;4.53;85.69;101995.56;5051211;28;20502;-66
2022/02/07 09:30:06;;;;;;;27.90;2.90;;;;;;;4.51;85.75;101994.81;5050375;28;20361;-66
2022/02/07 09:32:33;;;;;;;20.70;2.70;;;;;;;4.48;85.74;102004.34;5048513;28;20048;-66
2022/02/07 09:34:58;;;;;;;21.75;3.17;;;;;;;4.59;85.66;102008.88;5042909;28;20871;-65
2022/02/07 09:37:24;;;;;;;32.50;4.00;;;;;;;4.61;86.16;102007.03;5040250;28;20041;-66
2022/02/07 09:39:49;;;;;;;19.88;3.20;;;;;;;4.70;85.62;102020.28;5023292;28;20044;-66
2022/02/07 09:42:17;;;;;;;19.73;3.10;;;;;;;4.69;86.28;102027.19;5041605;28;20061;-66
2022/02/07 09:44:49;;;;;;;20.95;3.15;;;;;;;4.65;85.51;102041.09;5040272;28;20098;-66
2022/02/07 09:47:15;;;;;;;29.20;2.78;;;;;;;4.78;86.67;102042.03;5020835;28;20091;-65
2022/02/07 09:49:42;;;;;;;33.85;3.28;;;;;;;4.95;86.13;102050.53;5043444;28;20040;-66
2022/02/07 09:52:09;;;;;;;28.77;3.80;;;;;;;4.91;86.10;102056.78;5028169;28;20131;-66
2022/02/07 09:54:35;;;;;;;23.63;3.50;;;;;;;4.94;85.81;102061.75;5029157;28;20606;-66
2022/02/07 09:57:00;;;;;;;22.88;3.13;;;;;;;5.00;85.03;102064.78;5048238;28;20037;-66
2022/02/07 09:59:29;;;;;;;27.08;5.07;;;;;;;5.09;85.01;102068.56;5016272;28;20041;-66
2022/02/07 10:01:58;;;;;;;24.25;3.00;;;;;;;5.10;85.90;102080.50;5048702;28;20084;-66
2022/02/07 10:04:30;;;;;;;23.45;3.40;;;;;;;5.14;85.08;102078.56;5020690;28;20045;-66
2022/02/07 10:07:09;;;;;;;31.60;3.20;;;;;;;5.19;84.70;102081.72;5038407;28;20974;-66
2022/02/07 10:09:45;;;;;;;27.02;3.03;;;;;;;5.19;85.04;102097.97;5021190;28;20503;-66
2022/02/07 10:20:12;;;;;;;35.22;5.60;;;;;;;5.28;84.13;102118.94;5023887;28;20126;-66
2022/02/07 10:34:40;;;;;;;22.33;3.08;;;;;;;5.31;84.58;102136.75;5023530;28;20044;-66
2022/02/07 10:44:45;;;;;;;26.67;3.00;;;;;;;5.29;83.97;102190.84;5041459;28;20036;-66
2022/02/07 10:47:18;;;;;;;23.88;4.28;;;;;;;5.15;84.28;102186.50;5039049;28;20037;-66
2022/02/07 10:50:04;;;;;;;26.63;3.38;;;;;;;5.17;84.36;102191.56;5020642;28;20047;-65
2022/02/07 10:52:55;;;;;;;28.40;2.80;;;;;;;5.23;84.42;102188.63;5040570;28;20029;-67
2022/02/07 10:55:32;;;;;;;22.92;3.28;;;;;;;5.29;84.25;102190.03;5041813;28;20450;-66
2022/02/07 10:58:00;;;;;;;31.88;4.13;;;;;;;5.31;84.14;102208.75;5038354;28;20025;-65
2022/02/07 11:00:42;;;;;;;21.42;2.95;;;;;;;5.30;83.64;102196.84;5025599;28;20033;-66
2022/02/07 11:05:44;;;;;;;24.17;2.90;;;;;;;5.46;83.10;102213.88;5040986;28;20433;-66
2022/02/07 11:19:15;;;;;;;19.35;3.70;;;;;;;5.66;82.51;102219.63;5017392;28;20044;-65
2022/02/07 11:22:09;;;;;;;26.48;3.85;;;;;;;5.78;82.89;102215.47;5038733;28;20051;-66
2022/02/07 11:25:01;;;;;;;23.48;2.78;;;;;;;5.79;82.94;102224.88;5034382;28;20037;-66
2022/02/07 11:27:30;;;;;;;21.33;2.60;;;;;;;5.80;82.78;102231.66;5025192;28;20715;-66
2022/02/07 11:29:56;;;;;;;25.52;3.60;;;;;;;5.82;82.78;102234.97;5042767;28;20502;-66
2022/02/07 11:32:44;;;;;;;24.90;2.70;;;;;;;5.71;82.19;102237.34;5025855;28;20036;-66
2022/02/07 11:35:18;;;;;;;22.52;2.78;;;;;;;5.74;82.16;102244.91;5024344;28;20073;-66
2022/02/07 11:38:09;;;;;;;22.80;3.60;;;;;;;5.81;82.10;102252.19;5023267;28;20037;-66
2022/02/07 11:40:37;;;;;;;19.40;3.75;;;;;;;5.79;81.69;102253.19;5040568;28;20115;-66
2022/02/07 11:43:21;;;;;;;13.38;2.42;;;;;;;5.61;82.36;102247.34;5023779;28;20033;-66
2022/02/07 11:45:50;;;;;;;21.60;2.70;;;;;;;5.59;82.50;102262.06;5042271;28;20041;-66
2022/02/07 11:48:38;;;;;;;16.80;2.90;;;;;;;5.54;83.56;102264.06;5022571;28;20037;-67
2022/02/07 11:51:15;;;;;;;14.32;2.47;;;;;;;5.70;83.42;102257.13;5040362;28;20195;-66
2022/02/07 11:53:46;;;;;;;26.30;4.53;;;;;;;5.78;83.91;102256.66;5039448;28;20064;-66
2022/02/07 11:56:30;;;;;;;20.52;3.78;;;;;;;5.85;82.67;102248.50;5023623;28;20095;-66
2022/02/07 11:59:01;;;;;;;18.45;3.50;;;;;;;5.94;82.94;102247.16;5022652;28;20490;-66
2022/02/07 12:01:57;;;;;;;17.50;3.88;;;;;;;5.89;83.17;102258.63;5038823;28;20040;-66
2022/02/07 12:04:28;;;;;;;22.05;2.80;;;;;;;5.81;82.87;102264.22;5025092;28;20047;-66
2022/02/07 12:07:20;;;;;;;21.60;3.40;;;;;;;5.77;82.07;102262.75;5025359;28;20051;-66
2022/02/07 12:12:41;;;;;;;23.40;3.78;;;;;;;5.92;81.77;102264.44;5040671;28;20029;-65
2022/02/07 12:15:44;;;;;;;17.45;2.75;;;;;;;5.96;81.87;102260.78;5006208;28;20029;-66
2022/02/07 12:18:13;;;;;;;13.63;2.70;;;;;;;5.92;82.66;102258.47;5024168;28;20139;-66
2022/02/07 12:20:40;;;;;;;18.98;3.20;;;;;;;5.98;82.83;102269.25;5024426;28;20033;-66
2022/02/07 12:23:20;;;;;;;20.17;3.42;;;;;;;6.08;82.48;102266.94;5038054;28;20099;-66
2022/02/07 12:25:55;;;;;;;13.77;3.50;;;;;;;6.27;82.01;102266.69;5044554;28;20105;-66
2022/02/07 12:34:01;;;;;;;16.85;2.47;;;;;;;6.26;78.65;102262.47;5004832;28;20112;-67
2022/02/07 12:36:29;;;;;;;21.40;2.67;;;;;;;6.27;77.55;102265.84;5016482;28;20048;-67
2022/02/07 12:38:57;;;;;;;15.35;3.05;;;;;;;6.20;76.75;102262.84;5042984;28;20053;-66
2022/02/07 12:41:24;;;;;;;16.33;2.63;;;;;;;6.17;77.81;102258.69;5024660;28;20514;-67
2022/02/07 12:43:51;;;;;;;30.17;4.18;;;;;;;6.23;77.44;102260.06;5041310;28;20057;-66
2022/02/07 12:46:22;;;;;;;18.88;2.60;;;;;;;6.18;77.39;102265.50;5045318;28;20036;-67
2022/02/07 12:48:57;;;;;;;14.85;2.40;;;;;;;6.18;76.77;102267.25;5025061;28;20047;-67
2022/02/07 12:51:26;;;;;;;17.40;2.67;;;;;;;6.08;75.53;102260.97;5040416;28;20223;-66
2022/02/07 12:53:53;;;;;;;16.85;4.20;;;;;;;6.00;75.99;102269.16;5040313;28;20043;-67
2022/02/07 12:56:20;;;;;;;23.27;3.15;;;;;;;6.12;76.20;102273.59;5025207;28;20029;-66
2022/02/07 12:58:46;;;;;;;21.70;3.00;;;;;;;6.11;76.70;102265.97;5047471;28;20037;-66
2022/02/07 13:01:16;;;;;;;26.23;6.10;;;;;;;6.10;77.33;102264.28;5042970;28;20063;-67
2022/02/07 13:04:00;;;;;;;27.70;2.70;;;;;;;6.24;76.08;102265.13;5021051;28;20033;-66
2022/02/07 13:06:29;;;;;;;15.07;1.98;;;;;;;6.18;75.20;102270.66;5020570;28;20079;-66
2022/02/07 13:08:57;;;;;;;22.30;4.05;;;;;;;6.19;75.45;102276.63;5020617;28;20080;-66
2022/02/07 13:11:26;;;;;;;22.83;2.92;;;;;;;6.02;75.24;102269.91;5024262;28;20039;-66
2022/02/07 13:13:53;;;;;;;24.73;3.40;;;;;;;6.07;75.50;102273.03;5020790;28;20051;-66
2022/02/07 13:16:20;;;;;;;16.08;2.50;;;;;;;6.04;76.13;102284.31;5024283;28;20044;-66
2022/02/07 13:18:46;;;;;;;20.13;2.42;;;;;;;6.26;74.87;102279.69;5021037;28;20956;-66
2022/02/07 13:21:17;;;;;;;17.02;2.33;;;;;;;6.29;73.53;102292.34;5038363;28;20044;-67
2022/02/07 13:23:47;;;;;;;19.10;2.00;;;;;;;6.24;71.66;102290.06;5022389;28;20490;-67
2022/02/07 13:26:14;;;;;;;12.50;1.83;;;;;;;6.29;71.03;102277.75;5039119;28;21185;-67
2022/02/07 13:28:42;;;;;;;12.77;1.67;;;;;;;6.24;70.95;102292.66;5041174;28;20080;-67
2022/02/07 13:31:09;;;;;;;14.63;1.80;;;;;;;6.15;71.09;102295.75;5044174;28;20133;-67
2022/02/07 13:33:52;;;;;;;16.48;1.60;;;;;;;6.28;69.69;102295.88;5009823;28;20486;-67
2022/02/07 13:36:26;;;;;;;11.75;2.08;;;;;;;6.30;68.84;102309.47;5026734;28;20025;-66
2022/02/07 13:39:12;;;;;;;16.10;2.22;;;;;;;6.29;70.56;102318.97;5039617;28;20044;-66
2022/02/07 13:41:39;;;;;;;20.85;2.10;;;;;;;6.29;71.71;102323.28;5042903;28;20036;-66
2022/02/07 13:44:07;;;;;;;15.45;2.33;;;;;;;6.31;71.97;102317.13;5043665;28;20037;-67
2022/02/07 13:46:33;;;;;;;13.48;2.28;;;;;;;6.18;73.28;102318.78;5006873;28;20037;-67
2022/02/07 13:49:00;;;;;;;12.68;2.10;;;;;;;6.26;74.13;102329.44;5046732;28;20060;-66
2022/02/07 13:51:28;;;;;;;8.70;1.98;;;;;;;6.22;73.09;102333.13;5045562;28;20066;-66
2022/02/07 13:53:55;;;;;;;9.73;1.80;;;;;;;6.19;74.01;102338.44;5006209;28;20033;-66
2022/02/07 13:56:34;;;;;;;17.02;2.30;;;;;;;6.20;73.33;102353.81;5046054;28;20113;-67
2022/02/07 13:59:14;;;;;;;20.67;2.20;;;;;;;6.29;73.60;102352.47;5045849;28;20060;-66
2022/02/07 14:01:40;;;;;;;19.80;2.47;;;;;;;6.44;72.74;102345.53;5027534;28;20103;-66
2022/02/07 14:04:18;;;;;;;15.75;2.17;;;;;;;6.51;72.90;102346.84;5043775;28;20029;-67
2022/02/07 14:07:03;;;;;;;28.23;3.17;;;;;;;6.39;72.02;102356.13;5040963;28;20032;-66
2022/02/07 14:09:29;;;;;;;17.52;1.73;;;;;;;6.45;72.60;102356.72;5009464;28;20618;-67
2022/02/07 14:11:58;;;;;;;11.00;1.55;;;;;;;6.51;72.35;102362.31;5026907;28;20040;-66
2022/02/07 14:14:26;;;;;;;11.55;1.67;;;;;;;6.51;72.26;102349.41;5043171;28;20037;-67
2022/02/07 14:16:52;;;;;;;16.25;1.65;;;;;;;6.62;71.40;102352.19;5024430;28;20609;-66
2022/02/07 14:19:33;;;;;;;16.83;2.20;;;;;;;6.65;69.99;102350.34;5024548;28;20033;-66